Time;durP1;ratioP1;P1;durP2;ratioP2;P2;SDS_P1;SDS_P2;PMS_P1;PMS_P2;Temp;Humidity;BMP_temperature;BMP_pressure;BME280_temperature;BME280_humidity;BME280_pressure;Samples;Min_cycle;Max_cycle;Signal;HPM_P1;HPM_P2
2022/02/17 00:00:42;;;;;;;32.83;14.87;;;;;;;4.62;50.58;98596.78;5076284;28;20411;-68
2022/02/17 00:03:08;;;;;;;35.93;16.13;;;;;;;4.73;50.41;98615.81;5058687;28;20185;-68
2022/02/17 00:05:34;;;;;;;31.70;16.67;;;;;;;4.63;50.90;98619.44;5055769;28;20434;-68
2022/02/17 00:08:00;;;;;;;34.00;16.10;;;;;;;4.83;50.86;98619.22;5039047;28;20504;-68
2022/02/17 00:10:27;;;;;;;33.57;16.43;;;;;;;4.63;51.00;98598.41;5055698;28;20086;-68
2022/02/17 00:12:56;;;;;;;33.70;17.77;;;;;;;4.76;51.29;98609.44;5055572;28;20139;-69
2022/02/17 00:15:22;;;;;;;37.53;17.00;;;;;;;4.56;51.36;98594.72;5089064;28;20050;-68
2022/02/17 00:17:48;;;;;;;36.33;17.87;;;;;;;4.60;51.15;98596.91;5055493;28;20115;-68
2022/02/17 00:20:14;;;;;;;40.50;19.57;;;;;;;4.66;51.12;98612.09;5055988;28;20040;-68
2022/02/17 00:22:40;;;;;;;41.07;18.57;;;;;;;4.70;51.05;98596.88;5055884;28;20040;-68
2022/02/17 00:25:07;;;;;;;38.13;18.13;;;;;;;4.89;51.09;98591.47;5072602;28;20582;-69
2022/02/17 00:27:32;;;;;;;40.10;18.03;;;;;;;4.61;51.24;98577.53;5038956;28;20048;-68
2022/02/17 00:29:58;;;;;;;38.60;18.03;;;;;;;4.70;51.13;98573.19;5072109;28;20446;-68
2022/02/17 00:32:24;;;;;;;34.40;16.40;;;;;;;4.88;50.71;98558.28;5038860;28;20051;-68
2022/02/17 00:34:50;;;;;;;41.40;18.83;;;;;;;5.00;50.53;98563.19;5055191;28;20089;-68
2022/02/17 00:37:16;;;;;;;38.57;18.77;;;;;;;4.94;50.58;98544.53;5038838;28;20520;-72
2022/02/17 00:39:42;;;;;;;37.70;17.77;;;;;;;4.97;50.60;98549.47;5055573;28;20173;-68
2022/02/17 00:42:10;;;;;;;37.67;17.63;;;;;;;5.07;49.85;98523.94;5089443;28;20047;-68
2022/02/17 00:44:38;;;;;;;35.60;16.73;;;;;;;5.15;49.88;98526.66;5059894;28;20112;-68
2022/02/17 00:47:06;;;;;;;41.03;18.67;;;;;;;5.21;49.59;98518.97;5042443;28;20060;-69
2022/02/17 00:49:32;;;;;;;43.67;19.80;;;;;;;5.22;49.33;98514.53;5042750;28;20431;-68
2022/02/17 00:51:57;;;;;;;39.37;18.20;;;;;;;4.92;49.90;98475.47;5059245;28;20044;-68
2022/02/17 00:54:24;;;;;;;42.53;20.20;;;;;;;5.38;49.72;98495.41;5042313;28;20046;-69
2022/02/17 00:56:50;;;;;;;43.70;20.13;;;;;;;5.19;49.63;98507.78;5058936;28;20462;-68
2022/02/17 00:59:16;;;;;;;48.90;21.20;;;;;;;5.26;49.60;98494.81;5058935;28;20356;-68
2022/02/17 01:01:46;;;;;;;39.90;18.93;;;;;;;5.17;49.62;98486.03;5092223;28;20051;-68
2022/02/17 01:04:16;;;;;;;50.72;22.83;;;;;;;5.12;50.01;98467.25;5056240;28;20053;-68
2022/02/17 01:06:42;;;;;;;41.33;18.77;;;;;;;5.27;50.10;98464.91;5071908;28;20504;-68
2022/02/17 01:09:10;;;;;;;51.47;21.73;;;;;;;5.30;49.80;98461.97;5055040;28;20045;-68
2022/02/17 01:11:35;;;;;;;45.27;19.93;;;;;;;5.09;49.89;98458.81;5038678;28;20607;-68
2022/02/17 01:14:03;;;;;;;47.03;20.00;;;;;;;5.11;49.92;98418.22;5038620;28;20051;-69
2022/02/17 01:16:29;;;;;;;45.70;20.87;;;;;;;5.17;49.66;98448.34;5038887;28;20408;-68
2022/02/17 01:18:54;;;;;;;45.60;20.83;;;;;;;5.28;49.40;98434.97;5038562;28;20040;-69
2022/02/17 01:21:21;;;;;;;39.73;20.20;;;;;;;5.12;49.76;98435.66;5038663;28;20172;-69
2022/02/17 01:23:48;;;;;;;51.07;20.77;;;;;;;5.12;50.15;98421.66;5038633;28;20040;-68
2022/02/17 01:26:14;;;;;;;41.87;20.80;;;;;;;5.11;50.15;98418.22;5038244;28;20048;-68
2022/02/17 01:28:54;;;;;;;50.10;21.43;;;;;;;5.15;50.10;98410.88;5056697;28;20049;-68
2022/02/17 01:31:25;;;;;;;;;;;;;;;5.86;48.59;98406.19;5039305;28;20036;-67
2022/02/17 01:34:02;;;;;;;42.07;20.00;;;;;;;5.47;48.97;98411.06;5041123;28;19927;-68
2022/02/17 01:36:28;;;;;;;40.50;19.07;;;;;;;5.39;49.01;98405.75;5038249;28;20049;-67
2022/02/17 01:38:55;;;;;;;43.57;19.20;;;;;;;5.24;49.11;98407.31;5037766;28;20596;-68
2022/02/17 01:41:23;;;;;;;44.33;19.93;;;;;;;5.18;49.57;98389.50;5054193;28;20040;-68
2022/02/17 01:43:51;;;;;;;46.03;20.33;;;;;;;5.38;49.57;98383.06;5037104;28;20113;-71
2022/02/17 01:46:20;;;;;;;48.80;20.90;;;;;;;5.39;49.20;98375.97;5053679;28;20060;-67
2022/02/17 01:48:45;;;;;;;38.90;19.23;;;;;;;5.38;49.19;98382.22;5020628;28;20036;-68
2022/02/17 01:51:11;;;;;;;42.00;19.27;;;;;;;5.25;49.26;98369.47;5053545;28;20553;-69
2022/02/17 01:53:38;;;;;;;42.33;18.63;;;;;;;5.30;49.28;98367.19;5053135;28;20041;-67
2022/02/17 01:56:04;;;;;;;43.43;20.57;;;;;;;5.24;49.74;98359.94;5087679;28;20393;-68
2022/02/17 01:58:31;;;;;;;49.73;22.30;;;;;;;5.01;50.07;98350.91;5054661;28;20135;-68
2022/02/17 02:01:05;;;;;;;43.70;20.33;;;;;;;5.08;50.08;98351.91;5055654;28;20471;-67
2022/02/17 02:03:31;;;;;;;42.13;20.47;;;;;;;5.11;49.80;98333.19;5021198;28;20067;-68
2022/02/17 02:05:58;;;;;;;41.10;20.20;;;;;;;4.77;50.51;98342.81;5040061;28;20052;-71
2022/02/17 02:08:28;;;;;;;44.90;20.15;;;;;;;4.93;50.36;98345.59;5042774;28;20040;-67
2022/02/17 02:10:56;;;;;;;43.47;21.00;;;;;;;4.82;50.06;98315.09;5058449;28;20131;-68
2022/02/17 02:13:22;;;;;;;41.87;20.03;;;;;;;4.71;50.65;98344.28;5057603;28;20135;-71
2022/02/17 02:15:53;;;;;;;46.83;20.43;;;;;;;5.19;50.66;98364.81;5057806;28;20063;-68
2022/02/17 02:18:22;;;;;;;41.63;20.43;;;;;;;5.04;50.86;98346.13;5058174;28;20408;-68
2022/02/17 02:20:53;;;;;;;42.80;19.55;;;;;;;4.97;50.89;98347.75;5091294;28;20092;-68
2022/02/17 02:23:23;;;;;;;41.63;19.47;;;;;;;4.79;50.72;98362.75;5074647;28;20044;-68
2022/02/17 02:25:57;;;;;;;42.83;19.73;;;;;;;4.80;50.89;98338.09;5090822;28;20052;-68
2022/02/17 02:28:28;;;;;;;40.47;17.80;;;;;;;4.91;51.02;98334.38;5057664;28;20062;-68
2022/02/17 02:30:55;;;;;;;37.47;17.90;;;;;;;4.93;51.04;98327.16;5057483;28;20078;-68
2022/02/17 02:33:21;;;;;;;37.50;17.87;;;;;;;4.63;51.41;98301.28;5090906;28;20036;-68
2022/02/17 02:35:48;;;;;;;33.70;17.63;;;;;;;4.50;52.00;98338.53;5040603;28;20431;-68
2022/02/17 02:38:14;;;;;;;39.20;18.00;;;;;;;4.55;52.13;98306.50;5040330;28;20050;-67
2022/02/17 02:40:41;;;;;;;38.50;18.43;;;;;;;4.93;51.54;98311.38;5073826;28;20044;-67
2022/02/17 02:43:11;;;;;;;39.43;17.73;;;;;;;4.81;51.03;98329.22;5042115;28;20040;-68
2022/02/17 02:45:38;;;;;;;45.37;19.37;;;;;;;4.49;52.10;98310.56;5041089;28;20533;-68
2022/02/17 02:48:15;;;;;;;39.03;18.10;;;;;;;4.62;52.17;98308.38;5075207;28;20048;-67
2022/02/17 02:50:42;;;;;;;43.23;18.80;;;;;;;4.81;51.78;98296.84;5057964;28;20043;-68
2022/02/17 02:53:10;;;;;;;42.37;19.27;;;;;;;4.59;51.70;98281.56;5073750;28;20109;-68
2022/02/17 02:55:36;;;;;;;35.03;17.43;;;;;;;4.55;52.28;98317.03;5040676;28;20139;-67
2022/02/17 02:58:03;;;;;;;38.27;18.03;;;;;;;4.24;53.49;98318.41;5073165;28;20047;-68
2022/02/17 03:00:29;;;;;;;37.00;16.40;;;;;;;4.28;53.70;98331.09;5090000;28;20048;-68
2022/02/17 03:02:54;;;;;;;40.27;17.83;;;;;;;4.45;53.30;98306.59;5039777;28;20052;-71
2022/02/17 03:05:22;;;;;;;41.20;18.43;;;;;;;4.39;53.46;98330.03;5061298;28;20206;-68
2022/02/17 03:07:49;;;;;;;35.27;16.13;;;;;;;4.37;53.84;98324.94;5035989;28;20064;-68
2022/02/17 03:10:15;;;;;;;34.27;16.80;;;;;;;4.26;54.18;98292.81;5052814;28;20958;-68
2022/02/17 03:12:42;;;;;;;34.63;15.37;;;;;;;4.41;54.04;98294.72;5020320;28;20058;-68
2022/02/17 03:15:09;;;;;;;32.27;15.63;;;;;;;4.58;54.04;98293.88;5036001;28;20492;-68
2022/02/17 03:17:34;;;;;;;35.13;14.60;;;;;;;4.46;53.84;98325.84;5036020;28;20059;-67
2022/02/17 03:20:00;;;;;;;39.43;15.97;;;;;;;4.47;54.13;98306.44;5036009;28;20040;-69
2022/02/17 03:22:26;;;;;;;36.67;15.77;;;;;;;4.45;54.24;98271.59;5052437;28;20044;-68
2022/02/17 03:24:52;;;;;;;38.17;16.67;;;;;;;4.46;54.73;98265.38;5053013;28;20102;-67
2022/02/17 03:27:18;;;;;;;37.43;16.20;;;;;;;4.47;54.56;98259.13;5036003;28;20127;-68
2022/02/17 03:29:44;;;;;;;39.23;16.43;;;;;;;4.52;54.84;98249.00;5019528;28;20178;-69
2022/02/17 03:32:10;;;;;;;39.40;17.93;;;;;;;4.47;55.05;98232.84;5052158;28;20407;-68
2022/02/17 03:34:37;;;;;;;42.70;17.57;;;;;;;4.69;54.63;98219.19;5052398;28;20044;-68
2022/02/17 03:37:04;;;;;;;37.33;15.80;;;;;;;4.68;54.56;98218.38;5019227;28;20040;-69
2022/02/17 03:39:30;;;;;;;39.33;18.30;;;;;;;4.80;54.49;98208.38;5035930;28;20045;-68
2022/02/17 03:42:04;;;;;;;37.47;17.37;;;;;;;4.78;54.60;98218.25;5069598;28;20044;-69
2022/02/17 03:44:32;;;;;;;33.57;15.37;;;;;;;4.92;54.35;98197.44;5035824;28;20055;-68
2022/02/17 03:47:10;;;;;;;33.73;16.13;;;;;;;5.00;53.74;98197.47;5053740;28;20044;-68
2022/02/17 03:49:50;;;;;;;31.53;14.57;;;;;;;5.13;53.33;98181.25;5039498;28;20424;-68
2022/02/17 03:52:16;;;;;;;34.07;15.00;;;;;;;5.13;52.95;98189.16;5035315;28;20048;-68
2022/02/17 03:54:47;;;;;;;;;;;;;;;5.70;52.21;98184.84;5037585;28;20625;-68
2022/02/17 03:57:14;;;;;;;31.33;14.83;;;;;;;5.22;52.50;98169.75;5035490;28;19925;-68
2022/02/17 03:59:45;;;;;;;;;;;;;;;5.73;52.20;98187.16;5053251;28;20055;-68
2022/02/17 04:02:12;;;;;;;30.60;13.90;;;;;;;5.20;52.70;98169.09;5035503;28;19924;-68
2022/02/17 04:04:38;;;;;;;35.17;15.23;;;;;;;5.44;52.33;98145.47;5024771;28;20063;-69
2022/02/17 04:07:04;;;;;;;36.37;14.90;;;;;;;5.25;52.45;98169.44;5055000;28;20047;-69
2022/02/17 04:09:32;;;;;;;31.57;15.37;;;;;;;5.50;52.75;98160.63;5071890;28;20096;-68
2022/02/17 04:11:59;;;;;;;30.93;14.80;;;;;;;5.34;52.59;98152.69;5038840;28;20065;-68
2022/02/17 04:14:31;;;;;;;30.27;13.93;;;;;;;5.24;52.75;98154.66;5056090;28;20082;-69
2022/02/17 04:16:57;;;;;;;30.67;13.83;;;;;;;5.47;51.79;98149.59;5039865;28;20181;-68
2022/02/17 04:19:46;;;;;;;25.57;13.10;;;;;;;5.54;51.75;98147.94;5066911;28;20067;-68
2022/02/17 04:22:35;;;;;;;32.40;14.40;;;;;;;5.49;51.59;98137.91;5081865;28;20108;-68
2022/02/17 04:25:13;;;;;;;32.90;14.80;;;;;;;5.48;51.67;98133.63;5080184;28;20615;-70
2022/02/17 04:27:41;;;;;;;27.63;14.03;;;;;;;5.41;51.84;98156.34;5078874;28;20139;-68
2022/02/17 04:30:09;;;;;;;26.60;12.10;;;;;;;5.54;51.77;98105.81;5061844;28;20074;-69
2022/02/17 04:32:35;;;;;;;26.87;13.50;;;;;;;5.44;51.06;98090.19;5045113;28;20041;-69
2022/02/17 04:35:02;;;;;;;23.80;12.53;;;;;;;5.67;50.97;98085.94;5061751;28;20093;-69
2022/02/17 04:37:29;;;;;;;26.00;13.50;;;;;;;5.91;50.46;98109.63;5061962;28;20097;-69
2022/02/17 04:39:56;;;;;;;24.00;12.43;;;;;;;5.76;50.62;98094.63;5062049;28;20134;-68
2022/02/17 04:42:24;;;;;;;25.27;12.77;;;;;;;5.70;50.74;98095.28;5085316;28;20071;-70
2022/02/17 04:45:08;;;;;;;21.33;11.80;;;;;;;5.70;51.20;98096.13;5095232;28;20046;-68
2022/02/17 04:47:34;;;;;;;22.67;11.60;;;;;;;5.53;51.11;98091.00;5045018;28;20088;-69
2022/02/17 04:50:00;;;;;;;20.77;11.43;;;;;;;5.76;50.73;98084.94;5045626;28;20185;-69
2022/02/17 04:52:26;;;;;;;23.43;11.60;;;;;;;5.71;50.85;98066.16;5045305;28;20043;-68
2022/02/17 04:54:52;;;;;;;23.73;11.77;;;;;;;5.58;51.06;98071.09;5061663;28;20051;-71
2022/02/17 04:57:18;;;;;;;24.83;12.53;;;;;;;5.56;50.72;98075.72;5061483;28;20142;-68
2022/02/17 04:59:45;;;;;;;24.00;12.13;;;;;;;5.65;51.01;98072.09;5042863;28;20547;-69
2022/02/17 05:02:11;;;;;;;21.70;11.37;;;;;;;5.61;50.54;98068.16;5076246;28;20043;-69
2022/02/17 05:04:53;;;;;;;20.73;10.67;;;;;;;5.85;50.15;98062.06;5047138;28;20099;-69
2022/02/17 05:07:22;;;;;;;19.30;10.33;;;;;;;5.75;50.04;98056.13;5059707;28;20043;-69
2022/02/17 05:09:48;;;;;;;19.50;10.40;;;;;;;5.74;50.11;98018.41;5059801;28;20097;-69
2022/02/17 05:12:15;;;;;;;16.53;9.30;;;;;;;5.69;50.10;98054.97;5042504;28;20150;-69
2022/02/17 05:14:42;;;;;;;19.37;10.10;;;;;;;5.75;49.74;98035.84;5077316;28;20055;-69
2022/02/17 05:17:09;;;;;;;15.60;9.27;;;;;;;5.77;49.70;98040.97;5061949;28;20131;-68
2022/02/17 05:19:36;;;;;;;19.37;11.00;;;;;;;6.06;49.24;98039.47;5044594;28;20043;-68
2022/02/17 05:22:14;;;;;;;15.97;9.53;;;;;;;6.07;49.01;98025.31;5094667;28;20040;-69
2022/02/17 05:25:00;;;;;;;15.10;8.60;;;;;;;5.96;49.01;98033.56;5067131;28;20077;-70
2022/02/17 05:27:59;;;;;;;17.13;9.43;;;;;;;6.16;48.99;98031.38;5061480;28;20101;-68
2022/02/17 05:30:25;;;;;;;17.20;8.33;;;;;;;5.97;48.96;98024.66;5057338;28;20542;-69
2022/02/17 05:33:09;;;;;;;15.47;8.87;;;;;;;6.39;48.53;98059.47;5061873;28;20040;-69
2022/02/17 05:35:54;;;;;;;11.97;7.77;;;;;;;5.90;48.79;98030.78;5077657;28;20090;-68
2022/02/17 05:38:41;;;;;;;18.60;9.00;;;;;;;5.64;49.15;98033.59;5061351;28;20048;-68
2022/02/17 05:41:24;;;;;;;12.80;7.60;;;;;;;5.87;48.87;98021.41;5062975;28;20052;-68
2022/02/17 05:43:50;;;;;;;13.63;8.10;;;;;;;5.95;48.57;98023.19;5058141;28;20498;-68
2022/02/17 05:46:16;;;;;;;14.73;8.53;;;;;;;5.84;48.79;98016.47;5058184;28;20121;-68
2022/02/17 05:48:42;;;;;;;16.87;8.20;;;;;;;5.93;48.37;97999.66;5041432;28;20048;-69
2022/02/17 05:51:08;;;;;;;15.60;8.77;;;;;;;6.28;47.99;98011.56;5041337;28;20043;-70
2022/02/17 05:53:34;;;;;;;20.03;8.00;;;;;;;6.17;47.85;98023.28;5041618;28;20036;-68
2022/02/17 05:56:00;;;;;;;15.57;8.43;;;;;;;6.24;47.90;98003.16;5058606;28;20040;-68
2022/02/17 05:58:26;;;;;;;16.40;8.00;;;;;;;6.02;48.04;98006.53;5074879;28;20046;-68
2022/02/17 06:00:52;;;;;;;13.40;7.57;;;;;;;6.06;48.44;97970.94;5041240;28;20411;-68
2022/02/17 06:03:18;;;;;;;14.60;8.00;;;;;;;6.11;48.22;97957.25;5057839;28;20043;-68
2022/02/17 06:05:44;;;;;;;13.67;8.37;;;;;;;6.20;47.82;97982.59;5041041;28;20059;-68
2022/02/17 06:08:13;;;;;;;16.57;8.60;;;;;;;6.24;48.03;97949.63;5058571;28;20048;-68
2022/02/17 06:10:41;;;;;;;13.77;8.07;;;;;;;5.92;48.59;97939.22;5057740;28;20345;-68
2022/02/17 06:13:06;;;;;;;16.73;9.30;;;;;;;5.93;48.51;97933.78;5041482;28;20521;-69
2022/02/17 06:15:32;;;;;;;14.70;8.27;;;;;;;6.01;48.85;97956.66;5074772;28;20093;-68
2022/02/17 06:17:58;;;;;;;14.03;7.77;;;;;;;6.00;49.06;97933.91;5057830;28;20079;-69
2022/02/17 06:20:24;;;;;;;12.47;7.33;;;;;;;5.81;49.20;97958.00;5041540;28;20068;-68
2022/02/17 06:22:51;;;;;;;16.43;9.03;;;;;;;5.92;49.50;97933.97;5058017;28;20135;-68
2022/02/17 06:25:19;;;;;;;15.53;8.43;;;;;;;6.12;49.21;97969.47;5074361;28;20083;-69
2022/02/17 06:27:45;;;;;;;14.30;7.97;;;;;;;5.77;49.64;97978.56;5074863;28;20522;-68
2022/02/17 06:30:11;;;;;;;12.37;7.03;;;;;;;5.61;50.12;97952.28;5041329;28;20078;-69
2022/02/17 06:32:44;;;;;;;14.83;8.53;;;;;;;5.95;50.08;97933.63;5040825;28;20089;-73
2022/02/17 06:35:10;;;;;;;14.10;7.37;;;;;;;5.54;50.25;97940.78;5057725;28;20056;-69
2022/02/17 06:37:36;;;;;;;16.13;7.70;;;;;;;5.82;49.92;97922.78;5041307;28;20149;-71
2022/02/17 06:40:05;;;;;;;11.83;7.70;;;;;;;6.04;49.76;97922.06;5058340;28;20563;-70
2022/02/17 06:42:31;;;;;;;14.73;7.47;;;;;;;5.94;49.49;97898.53;5073825;28;20074;-70
2022/02/17 06:44:57;;;;;;;14.33;8.20;;;;;;;5.99;49.30;97937.53;5040696;28;20040;-70
2022/02/17 06:47:22;;;;;;;13.27;7.70;;;;;;;5.86;49.61;97924.91;5057283;28;20067;-70
2022/02/17 06:49:48;;;;;;;17.03;8.40;;;;;;;5.84;49.81;97908.47;5057472;28;20048;-70
2022/02/17 06:52:14;;;;;;;16.33;8.37;;;;;;;6.16;49.30;97868.78;5040669;28;20048;-70
2022/02/17 06:54:42;;;;;;;14.07;8.73;;;;;;;6.14;49.05;97883.94;5040352;28;20132;-70
2022/02/17 06:57:08;;;;;;;16.13;8.30;;;;;;;6.13;49.33;97900.78;5074250;28;20051;-74
2022/02/17 06:59:34;;;;;;;13.77;7.57;;;;;;;5.95;49.54;97894.09;5073854;28;20062;-70
2022/02/17 07:02:00;;;;;;;13.33;7.67;;;;;;;5.98;49.77;97901.66;5040272;28;20043;-70
2022/02/17 07:04:26;;;;;;;14.37;8.13;;;;;;;6.16;49.32;97889.88;5040108;28;20091;-71
2022/02/17 07:06:52;;;;;;;14.13;8.40;;;;;;;6.15;49.43;97898.75;5040318;28;20517;-72
2022/02/17 07:09:18;;;;;;;14.93;8.30;;;;;;;6.24;49.38;97841.56;5064374;28;20423;-73
2022/02/17 07:11:44;;;;;;;14.17;7.80;;;;;;;6.09;49.49;97896.81;5067198;28;20076;-71
2022/02/17 07:14:11;;;;;;;11.97;7.77;;;;;;;6.24;49.83;97873.19;5068512;28;20075;-71
2022/02/17 07:16:37;;;;;;;14.37;8.37;;;;;;;6.13;49.71;97850.69;5056408;28;20048;-71
2022/02/17 07:19:03;;;;;;;13.50;8.00;;;;;;;6.10;49.60;97824.69;5071364;28;20043;-73
2022/02/17 07:21:28;;;;;;;14.40;8.30;;;;;;;6.37;49.17;97842.63;5054438;28;20921;-71
2022/02/17 07:23:55;;;;;;;16.23;9.00;;;;;;;6.45;49.14;97844.38;5042817;28;20051;-71
2022/02/17 07:26:21;;;;;;;16.37;8.10;;;;;;;6.55;48.87;97843.16;5035976;28;20048;-71
2022/02/17 07:28:47;;;;;;;13.77;8.53;;;;;;;6.46;49.19;97815.19;5035591;28;20044;-71
2022/02/17 07:31:13;;;;;;;18.73;8.97;;;;;;;6.61;49.03;97802.06;5032311;28;20139;-71
2022/02/17 07:33:39;;;;;;;14.47;7.93;;;;;;;6.67;48.75;97790.81;5019187;28;20078;-71
2022/02/17 07:36:07;;;;;;;13.27;7.70;;;;;;;6.64;49.17;97820.19;5039082;28;20054;-71
2022/02/17 07:38:34;;;;;;;13.47;8.63;;;;;;;6.74;49.08;97797.00;5055777;28;20135;-71
2022/02/17 07:41:00;;;;;;;16.33;8.90;;;;;;;6.24;50.52;97765.94;5055475;28;20043;-71
2022/02/17 07:43:25;;;;;;;15.97;8.50;;;;;;;6.68;49.57;97758.16;5039026;28;20052;-71
2022/02/17 07:45:51;;;;;;;15.33;8.73;;;;;;;7.00;48.89;97767.56;5038931;28;20520;-71
2022/02/17 07:48:17;;;;;;;14.53;7.90;;;;;;;6.93;49.01;97769.28;5038345;28;20046;-72
2022/02/17 07:50:43;;;;;;;15.40;8.73;;;;;;;6.92;49.12;97757.09;5038766;28;20526;-66
2022/02/17 07:53:09;;;;;;;15.83;8.13;;;;;;;6.75;49.28;97759.91;5087960;28;20044;-66
2022/02/17 07:55:35;;;;;;;21.80;9.63;;;;;;;6.85;49.07;97749.09;5051152;28;20556;-66
2022/02/17 07:58:04;;;;;;;12.60;7.93;;;;;;;7.13;49.07;97762.47;5051952;28;20398;-68
2022/02/17 08:00:30;;;;;;;17.00;9.23;;;;;;;7.05;49.31;97783.66;5051736;28;20033;-66
2022/02/17 08:02:56;;;;;;;16.13;9.10;;;;;;;6.75;50.14;97738.78;5077994;28;20088;-69
2022/02/17 08:05:22;;;;;;;18.20;8.87;;;;;;;6.98;49.70;97748.47;5088570;28;20500;-66
2022/02/17 08:07:48;;;;;;;14.20;8.90;;;;;;;6.90;49.75;97747.53;5071998;28;20456;-65
2022/02/17 08:10:14;;;;;;;16.07;8.63;;;;;;;6.97;49.43;97754.72;5071107;28;20178;-65
2022/02/17 08:12:41;;;;;;;17.93;9.67;;;;;;;7.35;49.23;97732.53;5055128;28;20079;-65
2022/02/17 08:15:07;;;;;;;16.80;8.77;;;;;;;7.20;49.24;97734.34;5071235;28;20044;-72
2022/02/17 08:17:33;;;;;;;20.07;10.23;;;;;;;7.33;48.84;97721.31;5053867;28;20057;-70
2022/02/17 08:19:59;;;;;;;15.23;8.87;;;;;;;7.39;48.86;97726.69;5048157;28;20546;-70
2022/02/17 08:22:25;;;;;;;18.13;9.70;;;;;;;7.15;49.41;97747.28;5068957;28;20419;-68
2022/02/17 08:24:53;;;;;;;18.33;9.10;;;;;;;7.42;48.95;97725.50;5069548;28;20036;-69
2022/02/17 08:27:19;;;;;;;16.67;9.03;;;;;;;7.50;48.76;97746.53;5069131;28;20056;-70
2022/02/17 08:29:47;;;;;;;17.20;8.70;;;;;;;7.66;48.35;97762.16;5088618;28;20050;-72
2022/02/17 08:32:13;;;;;;;19.40;9.77;;;;;;;7.51;48.70;97729.66;5069343;28;21027;-70
2022/02/17 08:34:38;;;;;;;16.30;9.33;;;;;;;7.51;48.76;97743.69;5036670;28;20574;-71
2022/02/17 08:37:04;;;;;;;16.37;8.90;;;;;;;7.38;48.97;97709.19;5037506;28;20138;-70
2022/02/17 08:39:30;;;;;;;17.30;9.57;;;;;;;7.62;48.44;97700.97;5053262;28;20159;-72
2022/02/17 08:41:56;;;;;;;20.97;9.10;;;;;;;7.87;48.37;97717.28;5086875;28;20067;-76
2022/02/17 08:44:22;;;;;;;15.13;7.83;;;;;;;7.76;48.32;97692.19;5087017;28;20044;-77
2022/02/17 08:46:48;;;;;;;19.60;9.40;;;;;;;7.81;48.25;97715.41;5070450;28;20040;-77
2022/02/17 08:49:14;;;;;;;15.07;9.03;;;;;;;7.48;49.20;97695.69;5043012;28;20092;-76
2022/02/17 08:51:40;;;;;;;15.60;8.73;;;;;;;7.72;48.99;97680.34;5070494;28;20105;-77
2022/02/17 08:54:07;;;;;;;15.97;8.97;;;;;;;7.86;48.44;97683.91;5054307;28;20138;-71
2022/02/17 08:56:32;;;;;;;15.73;8.90;;;;;;;7.98;48.33;97687.72;5053463;28;20052;-73
2022/02/17 08:59:00;;;;;;;15.40;8.70;;;;;;;7.66;48.45;97630.06;5053356;28;20423;-67
2022/02/17 09:01:26;;;;;;;15.00;8.87;;;;;;;7.72;48.56;97663.69;5070132;28;20063;-72
2022/02/17 09:03:52;;;;;;;14.20;8.93;;;;;;;7.67;49.18;97713.63;5069807;28;20036;-73
2022/02/17 09:06:18;;;;;;;14.93;8.60;;;;;;;7.41;49.83;97692.97;5056651;28;20060;-72
2022/02/17 09:08:44;;;;;;;15.67;8.63;;;;;;;7.79;49.32;97693.63;5040564;28;20038;-70
2022/02/17 09:11:12;;;;;;;17.10;8.03;;;;;;;7.60;49.21;97641.38;5040790;28;20044;-72
2022/02/17 09:13:38;;;;;;;17.63;9.13;;;;;;;7.95;49.26;97665.13;5040455;28;20535;-74
2022/02/17 09:16:05;;;;;;;16.47;9.27;;;;;;;8.12;48.75;97653.28;5040153;28;20058;-73
2022/02/17 09:18:31;;;;;;;15.97;8.47;;;;;;;7.89;49.05;97667.69;5039014;28;21030;-74
2022/02/17 09:20:59;;;;;;;16.83;9.30;;;;;;;7.98;48.58;97651.50;5057206;28;20040;-73
2022/02/17 09:23:25;;;;;;;17.37;10.07;;;;;;;8.31;48.21;97647.38;5056202;28;20048;-73
2022/02/17 09:25:53;;;;;;;14.20;8.63;;;;;;;8.28;48.02;97654.84;5040779;28;20431;-73
2022/02/17 09:28:19;;;;;;;15.53;8.73;;;;;;;8.05;48.44;97654.22;5057177;28;20104;-72
2022/02/17 09:30:45;;;;;;;18.53;9.30;;;;;;;8.22;48.69;97623.88;5057229;28;20035;-70
2022/02/17 09:33:12;;;;;;;16.10;9.57;;;;;;;8.47;48.21;97598.66;5056232;28;20100;-74
2022/02/17 09:35:38;;;;;;;16.77;9.93;;;;;;;8.42;47.75;97606.34;5036111;28;20561;-71
2022/02/17 09:38:05;;;;;;;16.30;9.67;;;;;;;8.06;48.37;97622.31;5053134;28;20041;-71
2022/02/17 09:40:30;;;;;;;19.67;8.70;;;;;;;8.17;48.50;97610.38;5059624;28;20056;-72
2022/02/17 09:42:56;;;;;;;17.23;9.37;;;;;;;8.35;48.05;97593.06;5050771;28;20071;-71
2022/02/17 09:45:25;;;;;;;14.40;7.97;;;;;;;8.25;48.60;97600.53;5053535;28;20086;-76
2022/02/17 09:47:51;;;;;;;14.37;8.90;;;;;;;8.19;48.53;97592.53;5071389;28;20722;-76
2022/02/17 09:50:19;;;;;;;17.73;9.47;;;;;;;8.01;48.56;97600.13;5071519;28;20043;-75
2022/02/17 09:52:46;;;;;;;17.63;8.93;;;;;;;8.32;48.12;97561.72;5055449;28;20081;-77
2022/02/17 09:55:16;;;;;;;17.33;9.07;;;;;;;8.62;47.66;97564.94;5056240;28;20439;-73
2022/02/17 09:57:47;;;;;;;19.13;9.93;;;;;;;8.43;48.16;97547.13;5074420;28;20051;-76
2022/02/17 10:00:13;;;;;;;16.25;8.80;;;;;;;8.24;47.99;97575.09;5053931;28;20078;-77
2022/02/17 10:02:41;;;;;;;15.25;8.93;;;;;;;8.47;47.44;97572.19;5087187;28;20063;-77
2022/02/17 10:05:07;;;;;;;16.27;8.65;;;;;;;8.67;47.24;97572.28;5052608;28;20539;-77
2022/02/17 10:07:37;;;;;;;16.63;9.67;;;;;;;8.73;47.03;97556.47;5037420;28;20138;-76
2022/02/17 10:10:07;;;;;;;16.95;9.48;;;;;;;8.75;47.31;97565.00;5069790;28;20496;-77
2022/02/17 10:12:53;;;;;;;19.37;9.50;;;;;;;9.36;46.16;97550.75;5052457;28;20040;-76
2022/02/17 10:15:26;;;;;;;16.10;8.43;;;;;;;9.13;46.29;97536.22;5050234;28;20440;-76
2022/02/17 10:18:02;;;;;;;19.83;8.02;;;;;;;9.04;46.66;97562.06;5066472;28;20047;-76
2022/02/17 10:20:28;;;;;;;17.67;9.25;;;;;;;8.93;46.33;97533.53;5045290;28;20055;-76
2022/02/17 10:23:06;;;;;;;16.57;9.63;;;;;;;9.19;46.15;97565.38;5015529;28;20025;-77
2022/02/17 10:25:32;;;;;;;15.20;9.18;;;;;;;9.08;45.82;97560.66;5049257;28;20648;-78
2022/02/17 10:27:57;;;;;;;21.08;10.30;;;;;;;9.06;45.83;97491.19;5049817;28;20225;-77
2022/02/17 10:30:24;;;;;;;17.23;9.68;;;;;;;9.00;45.80;97502.59;5032051;28;20377;-76
2022/02/17 10:33:00;;;;;;;17.48;9.93;;;;;;;9.31;46.01;97500.22;5069269;28;20075;-77
2022/02/17 10:35:28;;;;;;;21.17;9.57;;;;;;;9.39;45.35;97470.88;5068481;28;20052;-76
2022/02/17 10:37:56;;;;;;;19.05;9.52;;;;;;;9.73;44.49;97451.31;5085595;28;20713;-76
2022/02/17 10:40:24;;;;;;;18.67;9.73;;;;;;;9.62;44.42;97439.50;5062208;28;20045;-76
2022/02/17 10:43:05;;;;;;;18.17;9.82;;;;;;;10.05;43.73;97447.78;5046606;28;20051;-76
2022/02/17 10:45:32;;;;;;;16.42;9.65;;;;;;;9.50;44.49;97441.13;5053667;28;20044;-77
2022/02/17 10:48:13;;;;;;;20.95;10.40;;;;;;;10.11;43.77;97441.69;5065867;28;20415;-78
2022/02/17 10:50:39;;;;;;;23.15;10.88;;;;;;;9.55;44.28;97432.56;5067066;28;20226;-75
2022/02/17 10:53:19;;;;;;;19.75;10.85;;;;;;;10.02;44.02;97425.13;5052448;28;20055;-77
2022/02/17 10:55:56;;;;;;;20.08;11.68;;;;;;;10.07;43.87;97430.66;5053092;28;20052;-79
2022/02/17 10:58:27;;;;;;;24.13;11.93;;;;;;;9.77;43.99;97383.59;5052943;28;21021;-77
2022/02/17 11:00:57;;;;;;;22.67;12.02;;;;;;;10.13;43.94;97407.81;5084670;28;20044;-81
2022/02/17 11:03:27;;;;;;;22.00;12.02;;;;;;;10.21;43.15;97395.13;5087090;28;20044;-79
2022/02/17 11:05:54;;;;;;;18.58;10.40;;;;;;;10.02;43.15;97395.97;5052117;28;20090;-77
2022/02/17 11:08:20;;;;;;;26.10;11.27;;;;;;;10.02;43.22;97392.53;5035591;28;20080;-78
2022/02/17 11:10:46;;;;;;;22.08;11.23;;;;;;;9.84;43.06;97393.16;5035330;28;20078;-77
2022/02/17 11:13:18;;;;;;;21.73;10.80;;;;;;;10.43;42.66;97400.94;5068198;28;20515;-80
2022/02/17 11:15:46;;;;;;;22.45;11.30;;;;;;;10.18;42.84;97373.50;5052091;28;20051;-79
2022/02/17 11:18:12;;;;;;;25.80;11.75;;;;;;;9.81;43.25;97358.34;5061263;28;20480;-73
2022/02/17 11:20:39;;;;;;;24.10;10.40;;;;;;;9.58;43.89;97371.22;5085947;28;20046;-79
2022/02/17 11:23:05;;;;;;;22.42;11.45;;;;;;;9.28;44.62;97370.84;5064347;28;20068;-74
2022/02/17 11:25:37;;;;;;;17.23;10.63;;;;;;;9.42;44.26;97393.66;5084378;28;20056;-78
2022/02/17 11:28:09;;;;;;;26.60;12.10;;;;;;;9.74;44.30;97338.97;5031584;28;20076;-74
2022/02/17 11:30:37;;;;;;;19.95;10.38;;;;;;;9.38;44.41;97375.75;5046295;28;20052;-79
2022/02/17 11:33:21;;;;;;;20.75;11.20;;;;;;;9.62;44.31;97413.00;5065956;28;20151;-78